sensor_id;sensor_type;location;lat;lon;timestamp;temperature;humidity
53208;DHT22;39093;52.788;6.940;2022-09-30T00:01:22;9.40;99.90
53208;DHT22;39093;52.788;6.940;2022-09-30T00:03:52;9.40;99.90
53208;DHT22;39093;52.788;6.940;2022-09-30T00:06:20;9.40;99.90
53208;DHT22;39093;52.788;6.940;2022-09-30T00:08:48;9.40;99.90
53208;DHT22;39093;52.788;6.940;2022-09-30T00:11:20;9.40;99.90
53208;DHT22;39093;52.788;6.940;2022-09-30T00:13:49;9.40;99.90
53208;DHT22;39093;52.788;6.940;2022-09-30T00:16:18;9.30;99.90
53208;DHT22;39093;52.788;6.940;2022-09-30T00:18:47;9.30;99.90
53208;DHT22;39093;52.788;6.940;2022-09-30T00:21:14;9.30;99.90
53208;DHT22;39093;52.788;6.940;2022-09-30T00:23:43;9.20;99.90
53208;DHT22;39093;52.788;6.940;2022-09-30T00:26:12;9.20;99.90
53208;DHT22;39093;52.788;6.940;2022-09-30T00:28:40;9.20;99.90
53208;DHT22;39093;52.788;6.940;2022-09-30T00:31:14;9.20;99.90
53208;DHT22;39093;52.788;6.940;2022-09-30T00:33:41;9.20;99.90
53208;DHT22;39093;52.788;6.940;2022-09-30T00:36:09;9.10;99.90
53208;DHT22;39093;52.788;6.940;2022-09-30T00:38:36;9.20;99.90
53208;DHT22;39093;52.788;6.940;2022-09-30T00:41:03;9.10;99.90
53208;DHT22;39093;52.788;6.940;2022-09-30T00:43:44;9.10;99.90
53208;DHT22;39093;52.788;6.940;2022-09-30T00:46:39;9.10;99.90
53208;DHT22;39093;52.788;6.940;2022-09-30T00:49:19;9.10;99.90
53208;DHT22;39093;52.788;6.940;2022-09-30T00:51:52;9.10;99.90
53208;DHT22;39093;52.788;6.940;2022-09-30T00:54:25;9.00;99.90
53208;DHT22;39093;52.788;6.940;2022-09-30T00:57:00;9.10;99.90
53208;DHT22;39093;52.788;6.940;2022-09-30T00:59:33;9.20;99.90
53208;DHT22;39093;52.788;6.940;2022-09-30T01:02:03;9.10;99.90
53208;DHT22;39093;52.788;6.940;2022-09-30T01:04:31;9.00;99.90
53208;DHT22;39093;52.788;6.940;2022-09-30T01:07:04;9.10;99.90
53208;DHT22;39093;52.788;6.940;2022-09-30T01:09:37;9.10;99.90
53208;DHT22;39093;52.788;6.940;2022-09-30T01:12:23;9.00;99.90
53208;DHT22;39093;52.788;6.940;2022-09-30T01:14:52;9.00;99.90
53208;DHT22;39093;52.788;6.940;2022-09-30T01:22:59;9.00;99.90
53208;DHT22;39093;52.788;6.940;2022-09-30T01:39:29;9.00;99.90
53208;DHT22;39093;52.788;6.940;2022-09-30T01:47:26;9.00;99.90
53208;DHT22;39093;52.788;6.940;2022-09-30T01:50:19;9.00;99.90
53208;DHT22;39093;52.788;6.940;2022-09-30T01:55:48;9.10;99.90
53208;DHT22;39093;52.788;6.940;2022-09-30T02:00:55;9.10;99.90
53208;DHT22;39093;52.788;6.940;2022-09-30T02:03:33;9.10;99.90
53208;DHT22;39093;52.788;6.940;2022-09-30T02:06:13;9.10;99.90
53208;DHT22;39093;52.788;6.940;2022-09-30T02:08:46;9.10;99.90
53208;DHT22;39093;52.788;6.940;2022-09-30T02:11:34;9.10;99.90
53208;DHT22;39093;52.788;6.940;2022-09-30T02:14:08;9.00;99.90
53208;DHT22;39093;52.788;6.940;2022-09-30T02:16:42;9.00;99.90
53208;DHT22;39093;52.788;6.940;2022-09-30T02:19:28;9.00;99.90
53208;DHT22;39093;52.788;6.940;2022-09-30T02:22:05;9.00;99.90
53208;DHT22;39093;52.788;6.940;2022-09-30T02:24:34;9.00;99.90
53208;DHT22;39093;52.788;6.940;2022-09-30T02:27:09;8.90;99.90
53208;DHT22;39093;52.788;6.940;2022-09-30T02:29:42;8.90;99.90
53208;DHT22;39093;52.788;6.940;2022-09-30T02:32:25;8.80;99.90
53208;DHT22;39093;52.788;6.940;2022-09-30T02:35:00;8.70;99.90
53208;DHT22;39093;52.788;6.940;2022-09-30T02:37:37;8.70;99.90
53208;DHT22;39093;52.788;6.940;2022-09-30T02:42:49;8.60;99.90
53208;DHT22;39093;52.788;6.940;2022-09-30T02:45:19;8.60;99.90
53208;DHT22;39093;52.788;6.940;2022-09-30T02:48:27;8.60;99.90
53208;DHT22;39093;52.788;6.940;2022-09-30T02:51:01;8.60;99.90
53208;DHT22;39093;52.788;6.940;2022-09-30T02:56:51;8.50;99.90
53208;DHT22;39093;52.788;6.940;2022-09-30T02:59:20;8.40;99.90
53208;DHT22;39093;52.788;6.940;2022-09-30T03:01:47;8.40;99.90
53208;DHT22;39093;52.788;6.940;2022-09-30T03:04:18;8.40;99.90
53208;DHT22;39093;52.788;6.940;2022-09-30T03:06:46;8.40;99.90
53208;DHT22;39093;52.788;6.940;2022-09-30T03:09:13;8.40;99.90
53208;DHT22;39093;52.788;6.940;2022-09-30T03:11:41;8.50;99.90
53208;DHT22;39093;52.788;6.940;2022-09-30T03:31:04;8.30;99.90
53208;DHT22;39093;52.788;6.940;2022-09-30T03:33:51;8.30;99.90
53208;DHT22;39093;52.788;6.940;2022-09-30T03:41:47;8.20;99.90
53208;DHT22;39093;52.788;6.940;2022-09-30T03:44:34;8.20;99.90
53208;DHT22;39093;52.788;6.940;2022-09-30T03:47:09;8.20;99.90
53208;DHT22;39093;52.788;6.940;2022-09-30T03:49:41;8.10;99.90
53208;DHT22;39093;52.788;6.940;2022-09-30T03:52:12;8.10;99.90
53208;DHT22;39093;52.788;6.940;2022-09-30T03:54:52;8.10;99.90
53208;DHT22;39093;52.788;6.940;2022-09-30T03:57:19;8.10;99.90
53208;DHT22;39093;52.788;6.940;2022-09-30T03:59:46;8.10;99.90
53208;DHT22;39093;52.788;6.940;2022-09-30T04:02:13;8.10;99.90
53208;DHT22;39093;52.788;6.940;2022-09-30T04:04:41;8.00;99.90
53208;DHT22;39093;52.788;6.940;2022-09-30T04:07:08;8.00;99.90
53208;DHT22;39093;52.788;6.940;2022-09-30T04:09:36;8.00;99.90
53208;DHT22;39093;52.788;6.940;2022-09-30T04:12:04;8.00;99.90
53208;DHT22;39093;52.788;6.940;2022-09-30T04:14:32;8.00;99.90
53208;DHT22;39093;52.788;6.940;2022-09-30T04:17:00;8.00;99.90
53208;DHT22;39093;52.788;6.940;2022-09-30T04:19:27;8.20;99.90
53208;DHT22;39093;52.788;6.940;2022-09-30T04:21:54;8.10;99.90
53208;DHT22;39093;52.788;6.940;2022-09-30T04:24:23;7.90;99.90
53208;DHT22;39093;52.788;6.940;2022-09-30T04:26:50;7.90;99.90
53208;DHT22;39093;52.788;6.940;2022-09-30T04:29:17;7.90;99.90
53208;DHT22;39093;52.788;6.940;2022-09-30T04:31:44;7.90;99.90
53208;DHT22;39093;52.788;6.940;2022-09-30T04:34:11;7.90;99.90
53208;DHT22;39093;52.788;6.940;2022-09-30T04:36:38;7.90;99.90
53208;DHT22;39093;52.788;6.940;2022-09-30T04:39:05;7.80;99.90
53208;DHT22;39093;52.788;6.940;2022-09-30T04:41:32;7.90;99.90
53208;DHT22;39093;52.788;6.940;2022-09-30T04:44:00;7.90;99.90
53208;DHT22;39093;52.788;6.940;2022-09-30T04:46:33;7.90;99.90
53208;DHT22;39093;52.788;6.940;2022-09-30T04:49:03;7.90;99.90
53208;DHT22;39093;52.788;6.940;2022-09-30T04:51:44;7.80;99.90
53208;DHT22;39093;52.788;6.940;2022-09-30T04:54:12;7.80;99.90
53208;DHT22;39093;52.788;6.940;2022-09-30T04:56:39;7.80;99.90
53208;DHT22;39093;52.788;6.940;2022-09-30T04:59:06;7.80;99.90
53208;DHT22;39093;52.788;6.940;2022-09-30T05:01:33;7.80;99.90
53208;DHT22;39093;52.788;6.940;2022-09-30T05:04:00;7.80;99.90
53208;DHT22;39093;52.788;6.940;2022-09-30T05:06:27;7.80;99.90
53208;DHT22;39093;52.788;6.940;2022-09-30T05:08:54;7.80;99.90
53208;DHT22;39093;52.788;6.940;2022-09-30T05:11:21;7.80;99.90
53208;DHT22;39093;52.788;6.940;2022-09-30T05:13:48;7.70;99.90
53208;DHT22;39093;52.788;6.940;2022-09-30T05:16:17;7.90;99.90
53208;DHT22;39093;52.788;6.940;2022-09-30T05:18:44;7.60;99.90
53208;DHT22;39093;52.788;6.940;2022-09-30T05:21:17;7.60;99.90
53208;DHT22;39093;52.788;6.940;2022-09-30T05:23:44;7.60;99.90
53208;DHT22;39093;52.788;6.940;2022-09-30T05:26:11;7.60;99.90
53208;DHT22;39093;52.788;6.940;2022-09-30T05:28:39;7.50;99.90
53208;DHT22;39093;52.788;6.940;2022-09-30T05:31:07;7.50;99.90
53208;DHT22;39093;52.788;6.940;2022-09-30T05:33:34;7.50;99.90
53208;DHT22;39093;52.788;6.940;2022-09-30T05:36:07;7.50;99.90
53208;DHT22;39093;52.788;6.940;2022-09-30T05:38:35;7.50;99.90
53208;DHT22;39093;52.788;6.940;2022-09-30T05:41:10;7.50;99.90
53208;DHT22;39093;52.788;6.940;2022-09-30T05:43:38;7.40;99.90
53208;DHT22;39093;52.788;6.940;2022-09-30T05:46:06;7.40;99.90
53208;DHT22;39093;52.788;6.940;2022-09-30T05:48:33;7.40;99.90
53208;DHT22;39093;52.788;6.940;2022-09-30T05:51:00;7.40;99.90
53208;DHT22;39093;52.788;6.940;2022-09-30T05:53:28;7.40;99.90
53208;DHT22;39093;52.788;6.940;2022-09-30T05:55:55;7.40;99.90
53208;DHT22;39093;52.788;6.940;2022-09-30T05:58:22;7.30;99.90
53208;DHT22;39093;52.788;6.940;2022-09-30T06:00:50;7.30;99.90
53208;DHT22;39093;52.788;6.940;2022-09-30T06:03:17;7.40;99.90
53208;DHT22;39093;52.788;6.940;2022-09-30T06:05:44;7.40;99.90
53208;DHT22;39093;52.788;6.940;2022-09-30T06:08:12;7.40;99.90
53208;DHT22;39093;52.788;6.940;2022-09-30T06:10:41;7.40;99.90
53208;DHT22;39093;52.788;6.940;2022-09-30T06:13:09;7.40;99.90
53208;DHT22;39093;52.788;6.940;2022-09-30T06:15:36;7.40;99.90
53208;DHT22;39093;52.788;6.940;2022-09-30T06:18:07;7.40;99.90
53208;DHT22;39093;52.788;6.940;2022-09-30T06:20:37;7.40;99.90
53208;DHT22;39093;52.788;6.940;2022-09-30T06:23:04;7.40;99.90
53208;DHT22;39093;52.788;6.940;2022-09-30T06:25:31;7.40;99.90
53208;DHT22;39093;52.788;6.940;2022-09-30T06:27:58;7.50;99.90
53208;DHT22;39093;52.788;6.940;2022-09-30T06:30:24;7.50;99.90
53208;DHT22;39093;52.788;6.940;2022-09-30T06:32:57;7.50;99.90
53208;DHT22;39093;52.788;6.940;2022-09-30T06:35:24;7.50;99.90
53208;DHT22;39093;52.788;6.940;2022-09-30T06:37:52;7.60;99.90
53208;DHT22;39093;52.788;6.940;2022-09-30T06:40:19;7.60;99.90
53208;DHT22;39093;52.788;6.940;2022-09-30T06:42:50;7.60;99.90
53208;DHT22;39093;52.788;6.940;2022-09-30T06:45:17;7.60;99.90
53208;DHT22;39093;52.788;6.940;2022-09-30T06:47:59;7.70;99.90
53208;DHT22;39093;52.788;6.940;2022-09-30T06:50:31;7.70;99.90
53208;DHT22;39093;52.788;6.940;2022-09-30T06:52:59;7.80;99.90
53208;DHT22;39093;52.788;6.940;2022-09-30T06:55:28;7.90;99.90
53208;DHT22;39093;52.788;6.940;2022-09-30T06:57:55;7.90;99.90
53208;DHT22;39093;52.788;6.940;2022-09-30T07:00:24;7.90;99.90
53208;DHT22;39093;52.788;6.940;2022-09-30T07:02:53;8.00;99.90
53208;DHT22;39093;52.788;6.940;2022-09-30T07:05:21;8.10;99.90
53208;DHT22;39093;52.788;6.940;2022-09-30T07:07:48;8.20;99.90
53208;DHT22;39093;52.788;6.940;2022-09-30T07:10:14;8.20;99.90
53208;DHT22;39093;52.788;6.940;2022-09-30T07:12:41;8.20;99.90
53208;DHT22;39093;52.788;6.940;2022-09-30T07:15:08;8.30;99.90
53208;DHT22;39093;52.788;6.940;2022-09-30T07:17:39;8.30;99.90
53208;DHT22;39093;52.788;6.940;2022-09-30T07:20:06;8.40;99.90
53208;DHT22;39093;52.788;6.940;2022-09-30T07:22:33;8.40;99.90
53208;DHT22;39093;52.788;6.940;2022-09-30T07:25:02;8.50;99.90
53208;DHT22;39093;52.788;6.940;2022-09-30T07:27:31;8.50;99.90
53208;DHT22;39093;52.788;6.940;2022-09-30T07:29:58;8.60;99.90
53208;DHT22;39093;52.788;6.940;2022-09-30T07:32:46;8.70;99.90
53208;DHT22;39093;52.788;6.940;2022-09-30T07:35:13;8.70;99.90
53208;DHT22;39093;52.788;6.940;2022-09-30T07:37:39;8.80;99.90
53208;DHT22;39093;52.788;6.940;2022-09-30T07:40:07;8.80;99.90
53208;DHT22;39093;52.788;6.940;2022-09-30T07:42:39;8.90;99.90
53208;DHT22;39093;52.788;6.940;2022-09-30T07:45:12;9.00;99.90
53208;DHT22;39093;52.788;6.940;2022-09-30T07:47:42;9.10;99.90
53208;DHT22;39093;52.788;6.940;2022-09-30T07:50:09;9.10;99.90
53208;DHT22;39093;52.788;6.940;2022-09-30T07:52:38;9.10;99.90
53208;DHT22;39093;52.788;6.940;2022-09-30T07:55:05;9.20;99.90
53208;DHT22;39093;52.788;6.940;2022-09-30T07:57:32;9.30;99.90
53208;DHT22;39093;52.788;6.940;2022-09-30T07:59:59;9.40;99.90
53208;DHT22;39093;52.788;6.940;2022-09-30T08:02:46;9.40;99.90
53208;DHT22;39093;52.788;6.940;2022-09-30T08:05:13;9.50;99.90
53208;DHT22;39093;52.788;6.940;2022-09-30T08:07:40;9.60;99.90
53208;DHT22;39093;52.788;6.940;2022-09-30T08:10:07;9.60;99.90
53208;DHT22;39093;52.788;6.940;2022-09-30T08:12:36;9.70;99.90
53208;DHT22;39093;52.788;6.940;2022-09-30T08:15:03;9.80;99.90
53208;DHT22;39093;52.788;6.940;2022-09-30T08:17:31;9.80;99.90
53208;DHT22;39093;52.788;6.940;2022-09-30T08:19:58;9.90;99.90
53208;DHT22;39093;52.788;6.940;2022-09-30T08:22:25;10.00;99.90
53208;DHT22;39093;52.788;6.940;2022-09-30T08:24:52;10.10;99.90
53208;DHT22;39093;52.788;6.940;2022-09-30T08:27:19;10.10;99.90
53208;DHT22;39093;52.788;6.940;2022-09-30T08:29:46;10.20;99.90
53208;DHT22;39093;52.788;6.940;2022-09-30T08:32:22;10.30;99.90
53208;DHT22;39093;52.788;6.940;2022-09-30T08:34:49;10.30;99.90
53208;DHT22;39093;52.788;6.940;2022-09-30T08:37:15;10.40;99.90
53208;DHT22;39093;52.788;6.940;2022-09-30T08:39:42;10.50;99.90
53208;DHT22;39093;52.788;6.940;2022-09-30T08:48:18;10.80;99.90
53208;DHT22;39093;52.788;6.940;2022-09-30T08:51:16;10.80;99.90
53208;DHT22;39093;52.788;6.940;2022-09-30T08:53:50;10.90;99.90
53208;DHT22;39093;52.788;6.940;2022-09-30T08:56:29;11.00;99.90
53208;DHT22;39093;52.788;6.940;2022-09-30T09:01:47;11.20;99.90
53208;DHT22;39093;52.788;6.940;2022-09-30T09:04:17;11.20;99.90
53208;DHT22;39093;52.788;6.940;2022-09-30T09:09:58;11.40;99.90
53208;DHT22;39093;52.788;6.940;2022-09-30T09:20:56;11.70;99.90
53208;DHT22;39093;52.788;6.940;2022-09-30T09:23:24;11.90;99.90
53208;DHT22;39093;52.788;6.940;2022-09-30T09:25:51;12.00;99.90
53208;DHT22;39093;52.788;6.940;2022-09-30T09:28:38;12.00;99.90
53208;DHT22;39093;52.788;6.940;2022-09-30T09:31:11;12.10;99.90
53208;DHT22;39093;52.788;6.940;2022-09-30T09:33:40;12.20;99.90
53208;DHT22;39093;52.788;6.940;2022-09-30T09:47:36;12.60;99.90
53208;DHT22;39093;52.788;6.940;2022-09-30T09:50:12;12.70;99.90
53208;DHT22;39093;52.788;6.940;2022-09-30T09:53:04;12.80;99.90
53208;DHT22;39093;52.788;6.940;2022-09-30T09:55:35;12.90;99.90
53208;DHT22;39093;52.788;6.940;2022-09-30T09:58:13;13.00;99.90
53208;DHT22;39093;52.788;6.940;2022-09-30T10:00:41;13.10;99.90
53208;DHT22;39093;52.788;6.940;2022-09-30T10:03:15;13.20;99.90
53208;DHT22;39093;52.788;6.940;2022-09-30T10:06:07;13.40;99.90
53208;DHT22;39093;52.788;6.940;2022-09-30T10:08:39;13.60;99.90
53208;DHT22;39093;52.788;6.940;2022-09-30T10:11:25;13.60;99.90
53208;DHT22;39093;52.788;6.940;2022-09-30T10:13:57;13.70;99.90
53208;DHT22;39093;52.788;6.940;2022-09-30T10:16:33;13.80;99.90
53208;DHT22;39093;52.788;6.940;2022-09-30T10:19:03;13.90;99.90
53208;DHT22;39093;52.788;6.940;2022-09-30T10:21:35;13.90;99.90
53208;DHT22;39093;52.788;6.940;2022-09-30T10:24:27;14.00;99.90
53208;DHT22;39093;52.788;6.940;2022-09-30T10:26:54;14.00;99.90
53208;DHT22;39093;52.788;6.940;2022-09-30T10:29:31;14.00;99.90
53208;DHT22;39093;52.788;6.940;2022-09-30T10:32:06;14.10;99.90
53208;DHT22;39093;52.788;6.940;2022-09-30T10:34:42;14.20;99.90
53208;DHT22;39093;52.788;6.940;2022-09-30T10:37:20;14.30;99.90
53208;DHT22;39093;52.788;6.940;2022-09-30T10:40:02;14.30;99.90
53208;DHT22;39093;52.788;6.940;2022-09-30T10:42:32;14.30;99.90
53208;DHT22;39093;52.788;6.940;2022-09-30T10:45:19;14.40;99.90
53208;DHT22;39093;52.788;6.940;2022-09-30T10:47:52;14.40;99.90
53208;DHT22;39093;52.788;6.940;2022-09-30T10:50:21;14.50;99.90
53208;DHT22;39093;52.788;6.940;2022-09-30T10:53:03;14.50;99.90
53208;DHT22;39093;52.788;6.940;2022-09-30T10:55:40;14.60;99.90
53208;DHT22;39093;52.788;6.940;2022-09-30T11:06:30;14.90;99.90
53208;DHT22;39093;52.788;6.940;2022-09-30T11:12:01;15.00;99.90
53208;DHT22;39093;52.788;6.940;2022-09-30T11:14:45;15.20;99.90
53208;DHT22;39093;52.788;6.940;2022-09-30T11:17:39;15.20;99.90
53208;DHT22;39093;52.788;6.940;2022-09-30T11:20:26;15.50;99.90
53208;DHT22;39093;52.788;6.940;2022-09-30T11:23:03;15.60;99.90
53208;DHT22;39093;52.788;6.940;2022-09-30T11:31:03;15.90;99.90
53208;DHT22;39093;52.788;6.940;2022-09-30T11:41:53;16.40;99.90
53208;DHT22;39093;52.788;6.940;2022-09-30T11:44:35;16.40;99.90
53208;DHT22;39093;52.788;6.940;2022-09-30T11:49:39;16.60;99.90
53208;DHT22;39093;52.788;6.940;2022-09-30T11:55:02;16.70;99.90
53208;DHT22;39093;52.788;6.940;2022-09-30T12:00:15;16.90;99.90
53208;DHT22;39093;52.788;6.940;2022-09-30T12:02:53;17.10;99.80
53208;DHT22;39093;52.788;6.940;2022-09-30T12:05:34;17.10;99.90
53208;DHT22;39093;52.788;6.940;2022-09-30T12:08:52;17.20;99.70
53208;DHT22;39093;52.788;6.940;2022-09-30T12:11:13;17.50;99.90
53208;DHT22;39093;52.788;6.940;2022-09-30T12:13:45;17.80;98.50
53208;DHT22;39093;52.788;6.940;2022-09-30T12:16:24;17.80;98.00
53208;DHT22;39093;52.788;6.940;2022-09-30T12:19:02;17.70;98.00
53208;DHT22;39093;52.788;6.940;2022-09-30T12:21:35;17.80;97.70
53208;DHT22;39093;52.788;6.940;2022-09-30T12:24:16;18.10;96.70
53208;DHT22;39093;52.788;6.940;2022-09-30T12:26:45;18.20;96.70
53208;DHT22;39093;52.788;6.940;2022-09-30T12:35:07;18.30;97.70
53208;DHT22;39093;52.788;6.940;2022-09-30T12:49:24;21.20;94.00
53208;DHT22;39093;52.788;6.940;2022-09-30T12:51:55;21.60;91.70
53208;DHT22;39093;52.788;6.940;2022-09-30T12:54:40;21.90;93.60
53208;DHT22;39093;52.788;6.940;2022-09-30T12:57:07;22.50;91.60
53208;DHT22;39093;52.788;6.940;2022-09-30T12:59:37;22.50;90.90
53208;DHT22;39093;52.788;6.940;2022-09-30T13:02:06;22.10;89.30
53208;DHT22;39093;52.788;6.940;2022-09-30T13:04:38;22.00;90.00
53208;DHT22;39093;52.788;6.940;2022-09-30T13:07:20;21.50;89.00
53208;DHT22;39093;52.788;6.940;2022-09-30T13:10:22;21.10;88.40
53208;DHT22;39093;52.788;6.940;2022-09-30T13:20:50;18.50;91.90
53208;DHT22;39093;52.788;6.940;2022-09-30T13:23:46;18.40;93.00
53208;DHT22;39093;52.788;6.940;2022-09-30T13:31:31;19.10;93.00
53208;DHT22;39093;52.788;6.940;2022-09-30T13:39:28;19.30;92.60
53208;DHT22;39093;52.788;6.940;2022-09-30T13:42:10;19.70;92.50
53208;DHT22;39093;52.788;6.940;2022-09-30T13:50:11;20.70;90.00
53208;DHT22;39093;52.788;6.940;2022-09-30T13:52:39;20.20;90.50
53208;DHT22;39093;52.788;6.940;2022-09-30T13:55:20;20.20;91.40
53208;DHT22;39093;52.788;6.940;2022-09-30T14:00:19;20.10;90.30
53208;DHT22;39093;52.788;6.940;2022-09-30T14:08:24;19.80;90.30
53208;DHT22;39093;52.788;6.940;2022-09-30T14:21:43;18.50;92.30
53208;DHT22;39093;52.788;6.940;2022-09-30T14:24:16;18.30;92.30
53208;DHT22;39093;52.788;6.940;2022-09-30T14:26:51;18.10;92.20
53208;DHT22;39093;52.788;6.940;2022-09-30T14:31:47;17.60;92.90
53208;DHT22;39093;52.788;6.940;2022-09-30T14:34:17;17.50;93.40
53208;DHT22;39093;52.788;6.940;2022-09-30T14:36:47;17.30;93.60
53208;DHT22;39093;52.788;6.940;2022-09-30T14:39:21;17.20;93.50
53208;DHT22;39093;52.788;6.940;2022-09-30T14:41:57;17.10;93.60
53208;DHT22;39093;52.788;6.940;2022-09-30T14:44:26;17.00;94.00
53208;DHT22;39093;52.788;6.940;2022-09-30T14:46:55;17.00;93.70
53208;DHT22;39093;52.788;6.940;2022-09-30T14:49:29;16.80;94.20
53208;DHT22;39093;52.788;6.940;2022-09-30T14:52:02;16.70;94.40
53208;DHT22;39093;52.788;6.940;2022-09-30T14:54:30;16.60;94.50
53208;DHT22;39093;52.788;6.940;2022-09-30T14:57:00;16.60;94.90
53208;DHT22;39093;52.788;6.940;2022-09-30T14:59:32;16.50;95.10
53208;DHT22;39093;52.788;6.940;2022-09-30T15:02:15;16.60;95.40
53208;DHT22;39093;52.788;6.940;2022-09-30T15:04:49;16.60;95.20
53208;DHT22;39093;52.788;6.940;2022-09-30T15:07:18;16.60;95.10
53208;DHT22;39093;52.788;6.940;2022-09-30T15:09:46;16.60;95.40
53208;DHT22;39093;52.788;6.940;2022-09-30T15:12:18;16.50;95.50
53208;DHT22;39093;52.788;6.940;2022-09-30T15:14:52;16.40;96.00
53208;DHT22;39093;52.788;6.940;2022-09-30T15:17:22;16.40;96.00
53208;DHT22;39093;52.788;6.940;2022-09-30T15:19:50;16.40;96.10
53208;DHT22;39093;52.788;6.940;2022-09-30T15:22:18;16.30;96.20
53208;DHT22;39093;52.788;6.940;2022-09-30T15:24:47;16.30;95.70
53208;DHT22;39093;52.788;6.940;2022-09-30T15:27:23;16.30;95.90
53208;DHT22;39093;52.788;6.940;2022-09-30T15:32:41;16.20;95.80
53208;DHT22;39093;52.788;6.940;2022-09-30T15:35:14;16.20;96.10
53208;DHT22;39093;52.788;6.940;2022-09-30T15:37:42;16.20;96.10
53208;DHT22;39093;52.788;6.940;2022-09-30T15:40:16;16.00;96.40
53208;DHT22;39093;52.788;6.940;2022-09-30T15:43:07;16.10;96.40
53208;DHT22;39093;52.788;6.940;2022-09-30T15:45:39;16.10;96.40
53208;DHT22;39093;52.788;6.940;2022-09-30T15:53:15;15.90;96.20
53208;DHT22;39093;52.788;6.940;2022-09-30T15:56:36;15.90;96.50
53208;DHT22;39093;52.788;6.940;2022-09-30T15:58:38;15.90;96.70
53208;DHT22;39093;52.788;6.940;2022-09-30T16:01:19;15.80;97.00
53208;DHT22;39093;52.788;6.940;2022-09-30T16:03:53;15.70;97.20
53208;DHT22;39093;52.788;6.940;2022-09-30T16:06:30;15.60;97.10
53208;DHT22;39093;52.788;6.940;2022-09-30T16:09:04;15.60;97.50
53208;DHT22;39093;52.788;6.940;2022-09-30T16:11:35;15.50;97.80
53208;DHT22;39093;52.788;6.940;2022-09-30T16:14:06;15.50;97.80
53208;DHT22;39093;52.788;6.940;2022-09-30T16:16:35;15.50;97.90
53208;DHT22;39093;52.788;6.940;2022-09-30T16:19:04;15.50;98.00
53208;DHT22;39093;52.788;6.940;2022-09-30T16:21:48;15.40;98.20
53208;DHT22;39093;52.788;6.940;2022-09-30T16:26:49;15.40;98.50
53208;DHT22;39093;52.788;6.940;2022-09-30T16:29:17;15.30;98.60
53208;DHT22;39093;52.788;6.940;2022-09-30T16:31:46;15.40;98.30
53208;DHT22;39093;52.788;6.940;2022-09-30T16:34:26;15.30;98.60
53208;DHT22;39093;52.788;6.940;2022-09-30T16:37:02;15.40;98.50
53208;DHT22;39093;52.788;6.940;2022-09-30T16:39:29;15.20;98.80
53208;DHT22;39093;52.788;6.940;2022-09-30T16:41:56;15.20;99.00
53208;DHT22;39093;52.788;6.940;2022-09-30T16:44:23;15.10;99.00
53208;DHT22;39093;52.788;6.940;2022-09-30T16:46:50;15.10;99.10
53208;DHT22;39093;52.788;6.940;2022-09-30T16:49:18;15.00;99.20
53208;DHT22;39093;52.788;6.940;2022-09-30T16:51:45;15.10;99.30
53208;DHT22;39093;52.788;6.940;2022-09-30T16:54:12;15.10;99.10
53208;DHT22;39093;52.788;6.940;2022-09-30T16:56:39;15.10;99.10
53208;DHT22;39093;52.788;6.940;2022-09-30T16:59:11;14.90;99.50
53208;DHT22;39093;52.788;6.940;2022-09-30T17:01:40;14.80;99.60
53208;DHT22;39093;52.788;6.940;2022-09-30T17:04:07;14.80;99.70
53208;DHT22;39093;52.788;6.940;2022-09-30T17:06:37;14.80;99.90
53208;DHT22;39093;52.788;6.940;2022-09-30T17:09:04;14.80;99.90
53208;DHT22;39093;52.788;6.940;2022-09-30T17:11:33;14.70;99.90
53208;DHT22;39093;52.788;6.940;2022-09-30T17:14:02;14.60;99.90
53208;DHT22;39093;52.788;6.940;2022-09-30T17:16:29;14.70;99.90
53208;DHT22;39093;52.788;6.940;2022-09-30T17:18:57;14.60;99.90
53208;DHT22;39093;52.788;6.940;2022-09-30T17:21:25;14.50;99.90
53208;DHT22;39093;52.788;6.940;2022-09-30T17:23:54;14.50;99.90
53208;DHT22;39093;52.788;6.940;2022-09-30T17:26:21;14.50;99.90
53208;DHT22;39093;52.788;6.940;2022-09-30T17:28:48;14.40;99.90
53208;DHT22;39093;52.788;6.940;2022-09-30T17:31:15;14.50;99.90
53208;DHT22;39093;52.788;6.940;2022-09-30T17:33:42;14.40;99.90
53208;DHT22;39093;52.788;6.940;2022-09-30T17:36:10;14.40;99.90
53208;DHT22;39093;52.788;6.940;2022-09-30T17:38:38;14.40;99.90
53208;DHT22;39093;52.788;6.940;2022-09-30T17:41:06;14.30;99.90
53208;DHT22;39093;52.788;6.940;2022-09-30T17:43:52;14.30;99.90
53208;DHT22;39093;52.788;6.940;2022-09-30T17:46:19;14.40;99.90
53208;DHT22;39093;52.788;6.940;2022-09-30T17:48:53;14.20;99.90
53208;DHT22;39093;52.788;6.940;2022-09-30T17:51:20;14.10;99.90
53208;DHT22;39093;52.788;6.940;2022-09-30T17:53:47;14.20;99.90
53208;DHT22;39093;52.788;6.940;2022-09-30T17:56:17;14.20;99.90
53208;DHT22;39093;52.788;6.940;2022-09-30T17:58:47;14.10;99.90
53208;DHT22;39093;52.788;6.940;2022-09-30T18:01:15;14.10;99.90
53208;DHT22;39093;52.788;6.940;2022-09-30T18:03:43;14.00;99.90
53208;DHT22;39093;52.788;6.940;2022-09-30T18:06:12;14.10;99.90
53208;DHT22;39093;52.788;6.940;2022-09-30T18:08:41;14.00;99.90
53208;DHT22;39093;52.788;6.940;2022-09-30T18:11:08;14.10;99.90
53208;DHT22;39093;52.788;6.940;2022-09-30T18:13:35;14.00;99.90
53208;DHT22;39093;52.788;6.940;2022-09-30T18:16:05;13.90;99.90
53208;DHT22;39093;52.788;6.940;2022-09-30T18:18:33;13.90;99.90
53208;DHT22;39093;52.788;6.940;2022-09-30T18:21:00;14.00;99.90
53208;DHT22;39093;52.788;6.940;2022-09-30T18:23:27;13.90;99.90
53208;DHT22;39093;52.788;6.940;2022-09-30T18:25:54;13.80;99.90
53208;DHT22;39093;52.788;6.940;2022-09-30T18:28:22;13.70;99.90
53208;DHT22;39093;52.788;6.940;2022-09-30T18:30:49;13.70;99.90
53208;DHT22;39093;52.788;6.940;2022-09-30T18:33:16;13.60;99.90
53208;DHT22;39093;52.788;6.940;2022-09-30T18:35:47;13.60;99.90
53208;DHT22;39093;52.788;6.940;2022-09-30T18:38:14;13.60;99.90
53208;DHT22;39093;52.788;6.940;2022-09-30T18:40:41;13.60;99.90
53208;DHT22;39093;52.788;6.940;2022-09-30T18:43:12;13.60;99.90
53208;DHT22;39093;52.788;6.940;2022-09-30T18:45:40;13.60;99.90
53208;DHT22;39093;52.788;6.940;2022-09-30T18:48:09;13.50;99.90
53208;DHT22;39093;52.788;6.940;2022-09-30T18:50:36;13.40;99.90
53208;DHT22;39093;52.788;6.940;2022-09-30T18:53:04;13.30;99.90
53208;DHT22;39093;52.788;6.940;2022-09-30T18:55:38;13.30;99.90
53208;DHT22;39093;52.788;6.940;2022-09-30T18:58:05;13.30;99.90
53208;DHT22;39093;52.788;6.940;2022-09-30T19:00:32;13.30;99.90
53208;DHT22;39093;52.788;6.940;2022-09-30T19:02:59;13.20;99.90
53208;DHT22;39093;52.788;6.940;2022-09-30T19:05:26;13.30;99.90
53208;DHT22;39093;52.788;6.940;2022-09-30T19:07:53;13.20;99.90
53208;DHT22;39093;52.788;6.940;2022-09-30T19:10:20;13.10;99.90
53208;DHT22;39093;52.788;6.940;2022-09-30T19:12:49;13.20;99.90
53208;DHT22;39093;52.788;6.940;2022-09-30T19:15:17;13.10;99.90
53208;DHT22;39093;52.788;6.940;2022-09-30T19:17:45;13.10;99.90
53208;DHT22;39093;52.788;6.940;2022-09-30T19:20:12;13.10;99.90
53208;DHT22;39093;52.788;6.940;2022-09-30T19:22:41;13.20;99.90